sensor_id;sensor_type;location;lat;lon;timestamp;P1;durP1;ratioP1;P2;durP2;ratioP2
31210;SDS011;17836;50.948;3.946;2023-11-21T00:00:08;29.52;;;14.60;;
31210;SDS011;17836;50.948;3.946;2023-11-21T00:02:37;24.80;;;14.75;;
31210;SDS011;17836;50.948;3.946;2023-11-21T00:05:05;21.63;;;13.10;;
31210;SDS011;17836;50.948;3.946;2023-11-21T00:07:31;25.30;;;14.27;;
31210;SDS011;17836;50.948;3.946;2023-11-21T00:09:56;23.63;;;13.47;;
31210;SDS011;17836;50.948;3.946;2023-11-21T00:12:22;23.83;;;13.63;;
31210;SDS011;17836;50.948;3.946;2023-11-21T00:14:47;23.95;;;13.95;;
31210;SDS011;17836;50.948;3.946;2023-11-21T00:17:15;25.17;;;14.40;;
31210;SDS011;17836;50.948;3.946;2023-11-21T00:19:40;28.92;;;16.98;;
31210;SDS011;17836;50.948;3.946;2023-11-21T00:22:07;24.67;;;16.02;;
31210;SDS011;17836;50.948;3.946;2023-11-21T00:24:34;34.33;;;18.00;;
31210;SDS011;17836;50.948;3.946;2023-11-21T00:26:59;33.03;;;18.10;;
31210;SDS011;17836;50.948;3.946;2023-11-21T00:29:24;32.90;;;18.03;;
31210;SDS011;17836;50.948;3.946;2023-11-21T00:31:50;32.85;;;17.60;;
31210;SDS011;17836;50.948;3.946;2023-11-21T00:34:15;25.77;;;15.88;;
31210;SDS011;17836;50.948;3.946;2023-11-21T00:36:42;22.83;;;16.10;;
31210;SDS011;17836;50.948;3.946;2023-11-21T00:39:08;32.40;;;15.65;;
31210;SDS011;17836;50.948;3.946;2023-11-21T00:41:33;28.48;;;15.48;;
31210;SDS011;17836;50.948;3.946;2023-11-21T00:43:59;26.42;;;14.85;;
31210;SDS011;17836;50.948;3.946;2023-11-21T00:46:24;19.02;;;13.30;;
31210;SDS011;17836;50.948;3.946;2023-11-21T00:48:52;19.52;;;14.45;;
31210;SDS011;17836;50.948;3.946;2023-11-21T00:51:17;22.80;;;13.70;;
31210;SDS011;17836;50.948;3.946;2023-11-21T00:53:44;23.70;;;14.27;;
31210;SDS011;17836;50.948;3.946;2023-11-21T00:56:10;21.25;;;13.07;;
31210;SDS011;17836;50.948;3.946;2023-11-21T00:58:35;23.73;;;12.25;;
31210;SDS011;17836;50.948;3.946;2023-11-21T01:01:00;20.05;;;12.30;;
31210;SDS011;17836;50.948;3.946;2023-11-21T01:03:25;20.63;;;13.20;;
31210;SDS011;17836;50.948;3.946;2023-11-21T01:05:53;21.17;;;12.80;;
31210;SDS011;17836;50.948;3.946;2023-11-21T01:08:23;22.15;;;13.35;;
31210;SDS011;17836;50.948;3.946;2023-11-21T01:10:49;18.42;;;10.85;;
31210;SDS011;17836;50.948;3.946;2023-11-21T01:13:14;20.00;;;11.13;;
31210;SDS011;17836;50.948;3.946;2023-11-21T02:06:01;12.70;;;11.05;;
31210;SDS011;17836;50.948;3.946;2023-11-21T02:08:26;17.65;;;11.95;;
31210;SDS011;17836;50.948;3.946;2023-11-21T02:10:52;16.97;;;12.47;;
31210;SDS011;17836;50.948;3.946;2023-11-21T02:13:17;15.77;;;11.75;;
31210;SDS011;17836;50.948;3.946;2023-11-21T02:20:55;17.40;;;11.07;;
31210;SDS011;17836;50.948;3.946;2023-11-21T02:23:20;21.42;;;11.75;;
31210;SDS011;17836;50.948;3.946;2023-11-21T02:25:46;17.67;;;13.15;;
31210;SDS011;17836;50.948;3.946;2023-11-21T02:28:12;17.73;;;12.27;;
31210;SDS011;17836;50.948;3.946;2023-11-21T02:30:40;17.83;;;11.63;;
31210;SDS011;17836;50.948;3.946;2023-11-21T02:33:05;20.25;;;11.43;;
31210;SDS011;17836;50.948;3.946;2023-11-21T02:35:32;15.20;;;11.57;;
31210;SDS011;17836;50.948;3.946;2023-11-21T02:37:57;13.30;;;10.98;;
31210;SDS011;17836;50.948;3.946;2023-11-21T02:40:22;22.53;;;11.07;;
31210;SDS011;17836;50.948;3.946;2023-11-21T02:42:49;18.13;;;10.88;;
31210;SDS011;17836;50.948;3.946;2023-11-21T02:45:18;21.83;;;11.25;;
31210;SDS011;17836;50.948;3.946;2023-11-21T02:47:45;17.00;;;10.85;;
31210;SDS011;17836;50.948;3.946;2023-11-21T02:50:11;19.55;;;11.35;;
31210;SDS011;17836;50.948;3.946;2023-11-21T02:52:37;24.75;;;11.20;;
31210;SDS011;17836;50.948;3.946;2023-11-21T02:55:02;19.70;;;10.95;;
31210;SDS011;17836;50.948;3.946;2023-11-21T02:57:28;18.13;;;11.07;;
31210;SDS011;17836;50.948;3.946;2023-11-21T02:59:53;16.83;;;11.15;;
31210;SDS011;17836;50.948;3.946;2023-11-21T03:02:19;16.05;;;11.75;;
31210;SDS011;17836;50.948;3.946;2023-11-21T03:04:44;14.63;;;11.52;;
31210;SDS011;17836;50.948;3.946;2023-11-21T03:07:10;20.27;;;11.30;;
31210;SDS011;17836;50.948;3.946;2023-11-21T03:09:35;19.55;;;12.13;;
31210;SDS011;17836;50.948;3.946;2023-11-21T03:12:01;18.67;;;11.63;;
31210;SDS011;17836;50.948;3.946;2023-11-21T03:14:26;21.10;;;12.27;;
31210;SDS011;17836;50.948;3.946;2023-11-21T03:16:51;20.53;;;12.80;;
31210;SDS011;17836;50.948;3.946;2023-11-21T03:19:19;18.95;;;11.07;;
31210;SDS011;17836;50.948;3.946;2023-11-21T03:21:44;16.92;;;11.40;;
31210;SDS011;17836;50.948;3.946;2023-11-21T03:24:09;16.40;;;11.43;;
31210;SDS011;17836;50.948;3.946;2023-11-21T03:26:34;15.20;;;10.73;;
31210;SDS011;17836;50.948;3.946;2023-11-21T03:29:00;20.27;;;11.82;;
31210;SDS011;17836;50.948;3.946;2023-11-21T03:31:28;15.60;;;12.02;;
31210;SDS011;17836;50.948;3.946;2023-11-21T03:33:53;17.25;;;11.68;;
31210;SDS011;17836;50.948;3.946;2023-11-21T03:36:19;18.38;;;11.18;;
31210;SDS011;17836;50.948;3.946;2023-11-21T03:38:47;20.35;;;12.10;;
31210;SDS011;17836;50.948;3.946;2023-11-21T03:41:13;18.88;;;10.88;;
31210;SDS011;17836;50.948;3.946;2023-11-21T03:43:39;15.15;;;11.07;;
31210;SDS011;17836;50.948;3.946;2023-11-21T03:46:04;19.13;;;11.73;;
31210;SDS011;17836;50.948;3.946;2023-11-21T03:48:30;17.50;;;10.57;;
31210;SDS011;17836;50.948;3.946;2023-11-21T03:50:55;15.50;;;10.65;;
31210;SDS011;17836;50.948;3.946;2023-11-21T03:53:20;13.43;;;10.10;;
31210;SDS011;17836;50.948;3.946;2023-11-21T03:55:46;15.68;;;10.27;;
31210;SDS011;17836;50.948;3.946;2023-11-21T03:58:11;17.57;;;10.20;;
31210;SDS011;17836;50.948;3.946;2023-11-21T04:00:39;16.08;;;9.55;;
31210;SDS011;17836;50.948;3.946;2023-11-21T04:03:04;17.27;;;9.83;;
31210;SDS011;17836;50.948;3.946;2023-11-21T04:05:30;16.30;;;10.23;;
31210;SDS011;17836;50.948;3.946;2023-11-21T04:07:56;14.60;;;9.95;;
31210;SDS011;17836;50.948;3.946;2023-11-21T04:10:21;19.03;;;10.53;;
31210;SDS011;17836;50.948;3.946;2023-11-21T04:12:47;13.63;;;9.23;;
31210;SDS011;17836;50.948;3.946;2023-11-21T04:15:13;22.27;;;9.43;;
31210;SDS011;17836;50.948;3.946;2023-11-21T04:17:39;16.25;;;10.15;;
31210;SDS011;17836;50.948;3.946;2023-11-21T04:20:05;21.88;;;10.52;;
31210;SDS011;17836;50.948;3.946;2023-11-21T04:22:38;17.20;;;10.30;;
31210;SDS011;17836;50.948;3.946;2023-11-21T04:25:06;18.15;;;10.07;;
31210;SDS011;17836;50.948;3.946;2023-11-21T04:27:31;19.30;;;10.15;;
31210;SDS011;17836;50.948;3.946;2023-11-21T04:29:57;14.77;;;9.48;;
31210;SDS011;17836;50.948;3.946;2023-11-21T04:32:22;21.27;;;10.43;;
31210;SDS011;17836;50.948;3.946;2023-11-21T04:34:47;22.17;;;10.30;;
31210;SDS011;17836;50.948;3.946;2023-11-21T04:37:13;16.77;;;9.90;;
31210;SDS011;17836;50.948;3.946;2023-11-21T04:39:40;22.02;;;11.38;;
31210;SDS011;17836;50.948;3.946;2023-11-21T04:42:05;16.93;;;9.57;;
31210;SDS011;17836;50.948;3.946;2023-11-21T04:44:33;23.58;;;11.50;;
31210;SDS011;17836;50.948;3.946;2023-11-21T04:46:58;17.17;;;10.30;;
31210;SDS011;17836;50.948;3.946;2023-11-21T04:49:24;18.50;;;10.80;;
31210;SDS011;17836;50.948;3.946;2023-11-21T04:51:49;15.07;;;10.52;;
31210;SDS011;17836;50.948;3.946;2023-11-21T04:54:14;22.70;;;11.17;;
31210;SDS011;17836;50.948;3.946;2023-11-21T04:56:39;24.37;;;11.20;;
31210;SDS011;17836;50.948;3.946;2023-11-21T04:59:05;22.83;;;10.40;;
31210;SDS011;17836;50.948;3.946;2023-11-21T05:01:30;19.47;;;11.20;;
31210;SDS011;17836;50.948;3.946;2023-11-21T05:03:55;17.47;;;11.20;;
31210;SDS011;17836;50.948;3.946;2023-11-21T05:06:22;18.77;;;11.55;;
31210;SDS011;17836;50.948;3.946;2023-11-21T05:08:47;22.23;;;11.57;;
31210;SDS011;17836;50.948;3.946;2023-11-21T05:11:22;19.77;;;11.75;;
31210;SDS011;17836;50.948;3.946;2023-11-21T05:13:47;18.55;;;10.75;;
31210;SDS011;17836;50.948;3.946;2023-11-21T05:16:13;19.50;;;11.10;;
31210;SDS011;17836;50.948;3.946;2023-11-21T05:18:39;17.55;;;10.18;;
31210;SDS011;17836;50.948;3.946;2023-11-21T05:21:05;19.02;;;9.93;;
31210;SDS011;17836;50.948;3.946;2023-11-21T05:23:30;14.40;;;9.80;;
31210;SDS011;17836;50.948;3.946;2023-11-21T05:25:58;20.93;;;10.67;;
31210;SDS011;17836;50.948;3.946;2023-11-21T05:28:23;19.23;;;10.50;;
31210;SDS011;17836;50.948;3.946;2023-11-21T05:30:51;18.23;;;11.37;;
31210;SDS011;17836;50.948;3.946;2023-11-21T05:33:16;20.63;;;12.05;;
31210;SDS011;17836;50.948;3.946;2023-11-21T05:35:42;26.60;;;11.48;;
31210;SDS011;17836;50.948;3.946;2023-11-21T05:38:07;21.13;;;11.17;;
31210;SDS011;17836;50.948;3.946;2023-11-21T05:40:35;14.87;;;10.23;;
31210;SDS011;17836;50.948;3.946;2023-11-21T05:43:01;20.60;;;10.68;;
31210;SDS011;17836;50.948;3.946;2023-11-21T05:45:27;15.43;;;10.40;;
31210;SDS011;17836;50.948;3.946;2023-11-21T05:47:54;14.20;;;10.70;;
31210;SDS011;17836;50.948;3.946;2023-11-21T05:50:19;23.80;;;11.02;;
31210;SDS011;17836;50.948;3.946;2023-11-21T05:52:45;28.03;;;12.10;;
31210;SDS011;17836;50.948;3.946;2023-11-21T05:55:13;21.73;;;11.32;;
31210;SDS011;17836;50.948;3.946;2023-11-21T05:57:38;20.58;;;12.48;;
31210;SDS011;17836;50.948;3.946;2023-11-21T06:00:10;21.52;;;11.68;;
31210;SDS011;17836;50.948;3.946;2023-11-21T06:02:44;20.80;;;12.48;;
31210;SDS011;17836;50.948;3.946;2023-11-21T06:05:10;17.08;;;11.13;;
31210;SDS011;17836;50.948;3.946;2023-11-21T06:07:35;18.48;;;11.65;;
31210;SDS011;17836;50.948;3.946;2023-11-21T06:10:02;20.60;;;12.95;;
31210;SDS011;17836;50.948;3.946;2023-11-21T06:12:30;20.95;;;13.70;;
31210;SDS011;17836;50.948;3.946;2023-11-21T06:14:56;20.50;;;13.07;;
31210;SDS011;17836;50.948;3.946;2023-11-21T06:17:21;24.27;;;13.87;;
31210;SDS011;17836;50.948;3.946;2023-11-21T06:19:52;21.77;;;13.00;;
31210;SDS011;17836;50.948;3.946;2023-11-21T06:22:18;26.65;;;13.90;;
31210;SDS011;17836;50.948;3.946;2023-11-21T06:24:43;22.93;;;12.80;;
31210;SDS011;17836;50.948;3.946;2023-11-21T06:27:08;27.60;;;13.43;;
31210;SDS011;17836;50.948;3.946;2023-11-21T06:29:36;31.75;;;15.45;;
31210;SDS011;17836;50.948;3.946;2023-11-21T06:32:02;24.88;;;13.90;;
31210;SDS011;17836;50.948;3.946;2023-11-21T06:34:30;26.02;;;13.45;;
31210;SDS011;17836;50.948;3.946;2023-11-21T06:36:55;23.05;;;14.32;;
31210;SDS011;17836;50.948;3.946;2023-11-21T06:39:21;26.30;;;15.07;;
31210;SDS011;17836;50.948;3.946;2023-11-21T06:41:48;23.60;;;13.73;;
31210;SDS011;17836;50.948;3.946;2023-11-21T06:44:13;31.02;;;15.32;;
31210;SDS011;17836;50.948;3.946;2023-11-21T06:46:41;26.38;;;14.98;;
31210;SDS011;17836;50.948;3.946;2023-11-21T06:49:07;33.15;;;15.02;;
31210;SDS011;17836;50.948;3.946;2023-11-21T06:51:33;27.08;;;15.15;;
31210;SDS011;17836;50.948;3.946;2023-11-21T06:53:58;30.85;;;15.48;;
31210;SDS011;17836;50.948;3.946;2023-11-21T06:56:23;31.40;;;15.23;;
31210;SDS011;17836;50.948;3.946;2023-11-21T06:58:48;28.40;;;15.23;;
31210;SDS011;17836;50.948;3.946;2023-11-21T07:01:14;34.08;;;15.65;;
31210;SDS011;17836;50.948;3.946;2023-11-21T07:03:40;38.00;;;16.05;;
31210;SDS011;17836;50.948;3.946;2023-11-21T07:06:08;47.67;;;17.65;;
31210;SDS011;17836;50.948;3.946;2023-11-21T07:08:33;56.63;;;19.42;;
31210;SDS011;17836;50.948;3.946;2023-11-21T07:10:58;53.63;;;17.97;;
31210;SDS011;17836;50.948;3.946;2023-11-21T07:13:24;62.10;;;18.95;;
31210;SDS011;17836;50.948;3.946;2023-11-21T07:15:49;60.93;;;17.60;;
31210;SDS011;17836;50.948;3.946;2023-11-21T07:18:15;53.72;;;18.10;;
31210;SDS011;17836;50.948;3.946;2023-11-21T07:20:41;47.58;;;18.45;;
31210;SDS011;17836;50.948;3.946;2023-11-21T07:23:06;38.85;;;17.85;;
31210;SDS011;17836;50.948;3.946;2023-11-21T07:25:32;49.07;;;18.33;;
31210;SDS011;17836;50.948;3.946;2023-11-21T07:27:58;54.85;;;17.85;;
31210;SDS011;17836;50.948;3.946;2023-11-21T07:30:24;57.08;;;18.60;;
31210;SDS011;17836;50.948;3.946;2023-11-21T07:32:52;50.05;;;16.45;;
31210;SDS011;17836;50.948;3.946;2023-11-21T07:35:17;63.07;;;18.87;;
31210;SDS011;17836;50.948;3.946;2023-11-21T07:37:42;60.65;;;18.95;;
31210;SDS011;17836;50.948;3.946;2023-11-21T07:40:10;42.00;;;16.75;;
31210;SDS011;17836;50.948;3.946;2023-11-21T07:42:36;56.58;;;19.20;;
31210;SDS011;17836;50.948;3.946;2023-11-21T07:45:01;55.97;;;20.35;;
31210;SDS011;17836;50.948;3.946;2023-11-21T07:47:27;59.15;;;20.65;;
31210;SDS011;17836;50.948;3.946;2023-11-21T07:49:53;59.23;;;19.37;;
31210;SDS011;17836;50.948;3.946;2023-11-21T07:52:20;65.80;;;20.77;;
31210;SDS011;17836;50.948;3.946;2023-11-21T07:54:46;55.67;;;19.50;;
31210;SDS011;17836;50.948;3.946;2023-11-21T07:57:11;59.28;;;18.15;;
31210;SDS011;17836;50.948;3.946;2023-11-21T07:59:38;52.53;;;19.67;;
31210;SDS011;17836;50.948;3.946;2023-11-21T08:02:03;49.50;;;20.30;;
31210;SDS011;17836;50.948;3.946;2023-11-21T08:04:29;57.40;;;20.10;;
31210;SDS011;17836;50.948;3.946;2023-11-21T08:06:54;59.83;;;19.27;;
31210;SDS011;17836;50.948;3.946;2023-11-21T08:09:20;53.97;;;20.57;;
31210;SDS011;17836;50.948;3.946;2023-11-21T08:11:48;66.47;;;20.58;;
31210;SDS011;17836;50.948;3.946;2023-11-21T08:14:14;66.78;;;20.60;;
31210;SDS011;17836;50.948;3.946;2023-11-21T08:16:40;56.22;;;19.45;;
31210;SDS011;17836;50.948;3.946;2023-11-21T08:19:05;72.53;;;21.43;;
31210;SDS011;17836;50.948;3.946;2023-11-21T08:21:31;81.88;;;22.25;;
31210;SDS011;17836;50.948;3.946;2023-11-21T08:23:56;63.70;;;20.53;;
31210;SDS011;17836;50.948;3.946;2023-11-21T08:26:21;82.43;;;21.65;;
31210;SDS011;17836;50.948;3.946;2023-11-21T08:28:47;74.35;;;21.63;;
31210;SDS011;17836;50.948;3.946;2023-11-21T08:31:12;81.32;;;22.48;;
31210;SDS011;17836;50.948;3.946;2023-11-21T08:33:38;77.32;;;21.95;;
31210;SDS011;17836;50.948;3.946;2023-11-21T08:36:06;51.10;;;19.90;;
31210;SDS011;17836;50.948;3.946;2023-11-21T08:38:31;55.25;;;20.55;;
31210;SDS011;17836;50.948;3.946;2023-11-21T08:40:58;69.05;;;20.65;;
31210;SDS011;17836;50.948;3.946;2023-11-21T08:43:23;55.05;;;20.52;;
31210;SDS011;17836;50.948;3.946;2023-11-21T08:45:49;49.03;;;18.45;;
31210;SDS011;17836;50.948;3.946;2023-11-21T08:48:14;52.20;;;20.67;;
31210;SDS011;17836;50.948;3.946;2023-11-21T08:50:39;49.03;;;19.70;;
31210;SDS011;17836;50.948;3.946;2023-11-21T08:53:07;47.50;;;19.10;;
31210;SDS011;17836;50.948;3.946;2023-11-21T08:55:32;40.15;;;19.17;;
31210;SDS011;17836;50.948;3.946;2023-11-21T08:58:02;53.03;;;17.52;;
31210;SDS011;17836;50.948;3.946;2023-11-21T09:00:30;44.15;;;18.35;;
31210;SDS011;17836;50.948;3.946;2023-11-21T09:02:55;43.03;;;18.17;;
31210;SDS011;17836;50.948;3.946;2023-11-21T09:05:20;42.58;;;17.92;;
31210;SDS011;17836;50.948;3.946;2023-11-21T09:07:46;44.05;;;17.88;;
31210;SDS011;17836;50.948;3.946;2023-11-21T09:10:13;37.53;;;17.60;;
31210;SDS011;17836;50.948;3.946;2023-11-21T09:12:39;34.42;;;16.05;;
31210;SDS011;17836;50.948;3.946;2023-11-21T09:15:05;30.17;;;15.98;;
31210;SDS011;17836;50.948;3.946;2023-11-21T09:17:34;32.05;;;15.60;;
31210;SDS011;17836;50.948;3.946;2023-11-21T09:19:59;30.58;;;16.05;;
31210;SDS011;17836;50.948;3.946;2023-11-21T09:22:25;27.40;;;15.43;;
31210;SDS011;17836;50.948;3.946;2023-11-21T09:24:51;26.17;;;13.27;;
31210;SDS011;17836;50.948;3.946;2023-11-21T09:27:17;22.98;;;13.27;;
31210;SDS011;17836;50.948;3.946;2023-11-21T09:29:42;20.40;;;12.30;;
31210;SDS011;17836;50.948;3.946;2023-11-21T09:32:10;24.83;;;12.82;;
31210;SDS011;17836;50.948;3.946;2023-11-21T09:34:39;21.73;;;12.75;;
31210;SDS011;17836;50.948;3.946;2023-11-21T09:37:07;24.88;;;12.80;;
31210;SDS011;17836;50.948;3.946;2023-11-21T09:39:33;21.70;;;14.38;;
31210;SDS011;17836;50.948;3.946;2023-11-21T09:42:04;19.63;;;11.43;;
31210;SDS011;17836;50.948;3.946;2023-11-21T09:44:43;22.75;;;12.50;;
31210;SDS011;17836;50.948;3.946;2023-11-21T09:47:10;22.08;;;13.30;;
31210;SDS011;17836;50.948;3.946;2023-11-21T09:49:42;22.58;;;11.88;;
31210;SDS011;17836;50.948;3.946;2023-11-21T09:52:11;21.52;;;11.98;;
31210;SDS011;17836;50.948;3.946;2023-11-21T09:54:40;19.45;;;11.75;;
31210;SDS011;17836;50.948;3.946;2023-11-21T09:57:05;24.00;;;13.63;;
31210;SDS011;17836;50.948;3.946;2023-11-21T09:59:31;18.33;;;12.65;;
31210;SDS011;17836;50.948;3.946;2023-11-21T10:01:57;25.85;;;14.52;;
31210;SDS011;17836;50.948;3.946;2023-11-21T10:04:23;20.23;;;12.18;;
31210;SDS011;17836;50.948;3.946;2023-11-21T10:06:48;22.52;;;14.07;;
31210;SDS011;17836;50.948;3.946;2023-11-21T10:09:16;25.38;;;14.80;;
31210;SDS011;17836;50.948;3.946;2023-11-21T10:11:42;26.35;;;13.65;;
31210;SDS011;17836;50.948;3.946;2023-11-21T10:14:10;21.48;;;13.75;;
31210;SDS011;17836;50.948;3.946;2023-11-21T10:16:37;18.70;;;13.27;;
31210;SDS011;17836;50.948;3.946;2023-11-21T10:19:05;18.92;;;12.32;;
31210;SDS011;17836;50.948;3.946;2023-11-21T10:21:33;15.52;;;11.95;;
31210;SDS011;17836;50.948;3.946;2023-11-21T10:23:59;17.05;;;11.88;;
31210;SDS011;17836;50.948;3.946;2023-11-21T10:26:25;15.57;;;11.80;;
31210;SDS011;17836;50.948;3.946;2023-11-21T10:28:57;12.82;;;9.65;;
31210;SDS011;17836;50.948;3.946;2023-11-21T10:31:23;13.05;;;9.75;;
31210;SDS011;17836;50.948;3.946;2023-11-21T10:33:52;15.43;;;9.80;;
31210;SDS011;17836;50.948;3.946;2023-11-21T10:36:26;10.25;;;8.45;;
31210;SDS011;17836;50.948;3.946;2023-11-21T10:38:52;10.57;;;6.72;;
31210;SDS011;17836;50.948;3.946;2023-11-21T10:41:18;9.65;;;6.50;;
31210;SDS011;17836;50.948;3.946;2023-11-21T10:43:43;6.85;;;5.80;;
31210;SDS011;17836;50.948;3.946;2023-11-21T10:46:09;10.00;;;6.18;;
31210;SDS011;17836;50.948;3.946;2023-11-21T10:48:34;7.95;;;4.72;;
31210;SDS011;17836;50.948;3.946;2023-11-21T10:51:01;6.03;;;5.43;;
31210;SDS011;17836;50.948;3.946;2023-11-21T10:53:32;9.48;;;4.97;;
31210;SDS011;17836;50.948;3.946;2023-11-21T10:56:08;7.80;;;4.00;;
31210;SDS011;17836;50.948;3.946;2023-11-21T10:58:34;8.32;;;3.90;;
31210;SDS011;17836;50.948;3.946;2023-11-21T11:01:00;6.72;;;3.15;;
31210;SDS011;17836;50.948;3.946;2023-11-21T11:03:29;7.20;;;3.40;;
31210;SDS011;17836;50.948;3.946;2023-11-21T11:05:54;5.45;;;2.58;;
31210;SDS011;17836;50.948;3.946;2023-11-21T11:08:23;8.55;;;2.78;;
31210;SDS011;17836;50.948;3.946;2023-11-21T11:13:16;4.38;;;2.30;;
31210;SDS011;17836;50.948;3.946;2023-11-21T11:15:41;8.77;;;2.40;;
31210;SDS011;17836;50.948;3.946;2023-11-21T11:18:10;6.35;;;2.00;;
31210;SDS011;17836;50.948;3.946;2023-11-21T11:20:37;7.20;;;2.90;;
31210;SDS011;17836;50.948;3.946;2023-11-21T11:28:27;8.07;;;2.38;;
31210;SDS011;17836;50.948;3.946;2023-11-21T11:31:04;3.97;;;1.83;;
31210;SDS011;17836;50.948;3.946;2023-11-21T11:36:04;7.18;;;2.63;;
31210;SDS011;17836;50.948;3.946;2023-11-21T11:38:31;5.43;;;1.83;;
31210;SDS011;17836;50.948;3.946;2023-11-21T11:41:00;5.70;;;1.60;;
31210;SDS011;17836;50.948;3.946;2023-11-21T11:43:28;4.93;;;2.28;;
31210;SDS011;17836;50.948;3.946;2023-11-21T11:45:57;5.07;;;1.77;;
31210;SDS011;17836;50.948;3.946;2023-11-21T11:48:24;3.33;;;1.77;;
31210;SDS011;17836;50.948;3.946;2023-11-21T11:51:02;4.80;;;1.83;;
31210;SDS011;17836;50.948;3.946;2023-11-21T11:53:35;5.95;;;1.92;;
31210;SDS011;17836;50.948;3.946;2023-11-21T11:58:47;3.83;;;1.63;;
31210;SDS011;17836;50.948;3.946;2023-11-21T12:01:12;4.93;;;1.73;;
31210;SDS011;17836;50.948;3.946;2023-11-21T12:03:38;3.35;;;1.73;;
31210;SDS011;17836;50.948;3.946;2023-11-21T12:06:04;3.38;;;1.30;;
31210;SDS011;17836;50.948;3.946;2023-11-21T12:08:31;3.53;;;1.60;;
31210;SDS011;17836;50.948;3.946;2023-11-21T12:10:57;9.50;;;2.25;;
31210;SDS011;17836;50.948;3.946;2023-11-21T12:13:23;3.05;;;1.48;;
31210;SDS011;17836;50.948;3.946;2023-11-21T12:15:48;4.78;;;1.67;;
31210;SDS011;17836;50.948;3.946;2023-11-21T12:18:14;4.20;;;1.52;;
31210;SDS011;17836;50.948;3.946;2023-11-21T12:20:41;5.35;;;1.70;;
31210;SDS011;17836;50.948;3.946;2023-11-21T12:23:10;5.78;;;1.77;;
31210;SDS011;17836;50.948;3.946;2023-11-21T12:25:36;3.10;;;1.70;;
31210;SDS011;17836;50.948;3.946;2023-11-21T12:28:02;7.10;;;2.63;;
31210;SDS011;17836;50.948;3.946;2023-11-21T12:30:29;4.28;;;2.08;;
31210;SDS011;17836;50.948;3.946;2023-11-21T12:32:56;7.72;;;1.92;;
31210;SDS011;17836;50.948;3.946;2023-11-21T12:35:24;4.95;;;1.90;;
31210;SDS011;17836;50.948;3.946;2023-11-21T12:37:49;4.32;;;2.08;;
31210;SDS011;17836;50.948;3.946;2023-11-21T12:40:17;3.80;;;1.83;;
31210;SDS011;17836;50.948;3.946;2023-11-21T12:42:43;7.13;;;2.28;;
31210;SDS011;17836;50.948;3.946;2023-11-21T12:45:18;5.63;;;2.80;;
31210;SDS011;17836;50.948;3.946;2023-11-21T12:47:45;3.42;;;2.42;;
31210;SDS011;17836;50.948;3.946;2023-11-21T12:50:11;5.53;;;2.95;;
31210;SDS011;17836;50.948;3.946;2023-11-21T12:52:42;3.65;;;2.55;;
31210;SDS011;17836;50.948;3.946;2023-11-21T12:55:13;5.78;;;3.17;;
31210;SDS011;17836;50.948;3.946;2023-11-21T12:57:41;6.35;;;2.92;;
31210;SDS011;17836;50.948;3.946;2023-11-21T13:00:08;4.72;;;3.40;;
31210;SDS011;17836;50.948;3.946;2023-11-21T13:02:38;5.65;;;3.60;;
31210;SDS011;17836;50.948;3.946;2023-11-21T13:05:07;5.45;;;4.20;;
31210;SDS011;17836;50.948;3.946;2023-11-21T13:07:41;7.40;;;4.70;;
31210;SDS011;17836;50.948;3.946;2023-11-21T13:10:12;5.85;;;4.45;;
31210;SDS011;17836;50.948;3.946;2023-11-21T13:12:42;7.93;;;4.97;;
31210;SDS011;17836;50.948;3.946;2023-11-21T13:15:07;5.55;;;5.03;;
31210;SDS011;17836;50.948;3.946;2023-11-21T13:17:33;7.88;;;5.72;;
31210;SDS011;17836;50.948;3.946;2023-11-21T13:19:58;8.40;;;6.03;;
31210;SDS011;17836;50.948;3.946;2023-11-21T13:22:23;11.23;;;6.63;;
31210;SDS011;17836;50.948;3.946;2023-11-21T13:24:52;8.27;;;6.25;;
31210;SDS011;17836;50.948;3.946;2023-11-21T13:27:18;8.48;;;6.40;;
31210;SDS011;17836;50.948;3.946;2023-11-21T13:29:43;8.85;;;7.15;;
31210;SDS011;17836;50.948;3.946;2023-11-21T13:32:09;9.88;;;8.02;;
31210;SDS011;17836;50.948;3.946;2023-11-21T13:34:37;8.60;;;7.47;;
31210;SDS011;17836;50.948;3.946;2023-11-21T13:37:02;8.05;;;7.22;;
31210;SDS011;17836;50.948;3.946;2023-11-21T13:39:29;7.53;;;6.85;;
31210;SDS011;17836;50.948;3.946;2023-11-21T13:41:57;7.65;;;6.95;;
31210;SDS011;17836;50.948;3.946;2023-11-21T13:44:23;8.23;;;7.40;;
31210;SDS011;17836;50.948;3.946;2023-11-21T13:46:55;9.65;;;6.68;;
31210;SDS011;17836;50.948;3.946;2023-11-21T13:49:23;8.13;;;7.32;;
31210;SDS011;17836;50.948;3.946;2023-11-21T13:51:48;55.75;;;22.35;;
31210;SDS011;17836;50.948;3.946;2023-11-21T13:54:18;38.30;;;20.05;;
31210;SDS011;17836;50.948;3.946;2023-11-21T13:56:46;49.90;;;23.00;;
31210;SDS011;17836;50.948;3.946;2023-11-21T13:59:11;70.78;;;31.75;;
31210;SDS011;17836;50.948;3.946;2023-11-21T14:01:48;34.25;;;19.55;;
31210;SDS011;17836;50.948;3.946;2023-11-21T14:04:19;8.25;;;7.45;;
31210;SDS011;17836;50.948;3.946;2023-11-21T14:06:56;6.22;;;5.63;;
31210;SDS011;17836;50.948;3.946;2023-11-21T14:09:22;6.15;;;5.57;;
31210;SDS011;17836;50.948;3.946;2023-11-21T14:11:50;7.57;;;6.88;;
31210;SDS011;17836;50.948;3.946;2023-11-21T14:14:17;7.13;;;6.43;;
31210;SDS011;17836;50.948;3.946;2023-11-21T14:16:43;7.60;;;5.93;;
31210;SDS011;17836;50.948;3.946;2023-11-21T14:19:11;6.68;;;6.05;;
31210;SDS011;17836;50.948;3.946;2023-11-21T14:24:13;6.03;;;5.43;;
31210;SDS011;17836;50.948;3.946;2023-11-21T14:26:41;6.78;;;5.40;;
31210;SDS011;17836;50.948;3.946;2023-11-21T14:29:07;6.00;;;5.43;;
31210;SDS011;17836;50.948;3.946;2023-11-21T14:31:33;6.32;;;5.35;;
31210;SDS011;17836;50.948;3.946;2023-11-21T14:33:59;6.57;;;5.18;;
31210;SDS011;17836;50.948;3.946;2023-11-21T14:36:26;7.28;;;5.55;;
31210;SDS011;17836;50.948;3.946;2023-11-21T14:38:52;5.40;;;4.93;;
31210;SDS011;17836;50.948;3.946;2023-11-21T14:41:17;4.90;;;4.43;;
31210;SDS011;17836;50.948;3.946;2023-11-21T14:43:42;6.63;;;5.93;;
31210;SDS011;17836;50.948;3.946;2023-11-21T14:46:10;5.45;;;4.95;;
31210;SDS011;17836;50.948;3.946;2023-11-21T14:48:39;5.82;;;5.32;;
31210;SDS011;17836;50.948;3.946;2023-11-21T14:51:10;5.05;;;4.57;;
31210;SDS011;17836;50.948;3.946;2023-11-21T14:53:51;6.07;;;5.47;;
31210;SDS011;17836;50.948;3.946;2023-11-21T14:56:22;5.78;;;5.18;;
31210;SDS011;17836;50.948;3.946;2023-11-21T14:58:58;10.00;;;6.30;;
31210;SDS011;17836;50.948;3.946;2023-11-21T15:01:30;6.88;;;5.88;;
31210;SDS011;17836;50.948;3.946;2023-11-21T15:04:09;6.32;;;5.75;;
31210;SDS011;17836;50.948;3.946;2023-11-21T15:06:48;6.90;;;6.28;;
31210;SDS011;17836;50.948;3.946;2023-11-21T15:09:16;7.00;;;6.30;;
31210;SDS011;17836;50.948;3.946;2023-11-21T15:12:02;6.95;;;6.25;;
31210;SDS011;17836;50.948;3.946;2023-11-21T15:14:47;6.57;;;5.97;;
31210;SDS011;17836;50.948;3.946;2023-11-21T15:17:17;5.13;;;4.63;;
31210;SDS011;17836;50.948;3.946;2023-11-21T15:19:51;4.68;;;4.10;;
31210;SDS011;17836;50.948;3.946;2023-11-21T15:22:16;4.97;;;4.18;;
31210;SDS011;17836;50.948;3.946;2023-11-21T15:24:45;5.03;;;3.70;;
31210;SDS011;17836;50.948;3.946;2023-11-21T15:27:12;4.13;;;3.72;;
31210;SDS011;17836;50.948;3.946;2023-11-21T15:29:38;5.35;;;4.20;;
31210;SDS011;17836;50.948;3.946;2023-11-21T15:32:04;6.05;;;5.45;;
31210;SDS011;17836;50.948;3.946;2023-11-21T15:34:30;8.48;;;6.30;;
31210;SDS011;17836;50.948;3.946;2023-11-21T15:36:56;9.85;;;7.72;;
31210;SDS011;17836;50.948;3.946;2023-11-21T15:39:22;7.63;;;6.82;;